Time;durP1;ratioP1;P1;durP2;ratioP2;P2;SDS_P1;SDS_P2;PMS_P1;PMS_P2;Temp;Humidity;BMP_temperature;BMP_pressure;BME280_temperature;BME280_humidity;BME280_pressure;Samples;Min_cycle;Max_cycle;Signal;HPM_P1;HPM_P2
2023/12/21 16:16:23;;;;;;;1.00;1.00;;;;;;;-0.39;100.00;97149.09;4801987;29;20425;-79
2023/12/21 16:18:50;;;;;;;1.00;1.00;;;;;;;-0.38;100.00;97160.50;4785507;29;20822;-79
2023/12/21 16:21:18;;;;;;;0.93;0.93;;;;;;;-0.38;100.00;97153.41;4767185;30;20433;-80
2023/12/21 16:23:46;;;;;;;1.10;1.10;;;;;;;-0.37;100.00;97156.84;4785001;29;20550;-80
2023/12/21 16:26:13;;;;;;;1.00;1.00;;;;;;;-0.40;100.00;97159.94;4782986;29;20055;-79
2023/12/21 16:28:41;;;;;;;0.90;0.90;;;;;;;-0.38;100.00;97156.06;4784951;29;20824;-82
2023/12/21 16:31:09;;;;;;;1.00;1.00;;;;;;;-0.42;100.00;97154.84;4783918;29;20509;-79
2023/12/21 16:33:36;;;;;;;1.10;1.10;;;;;;;-0.48;100.00;97148.59;4812559;29;20112;-80
2023/12/21 16:36:04;;;;;;;1.10;1.10;;;;;;;-0.44;100.00;97155.06;4784413;30;20057;-80
2023/12/21 16:38:33;;;;;;;1.00;1.00;;;;;;;-0.40;100.00;97150.16;4784954;29;20062;-80
2023/12/21 16:41:04;;;;;;;1.00;1.00;;;;;;;-0.42;100.00;97146.91;4783390;29;20208;-78
2023/12/21 16:43:36;;;;;;;1.00;1.00;;;;;;;-0.46;100.00;97141.25;4769204;30;20142;-79
2023/12/21 16:46:05;;;;;;;0.95;0.95;;;;;;;-0.41;100.00;97139.75;4784239;29;20062;-79
2023/12/21 16:48:39;;;;;;;1.00;1.00;;;;;;;-0.38;100.00;97139.31;4774816;30;20059;-80
2023/12/21 16:51:11;;;;;;;1.00;1.00;;;;;;;-0.39;100.00;97141.16;4789613;29;20082;-85
2023/12/21 16:53:50;;;;;;;1.00;1.00;;;;;;;-0.36;100.00;97147.84;4782210;30;20063;-86
2023/12/21 16:56:18;;;;;;;1.00;1.00;;;;;;;-0.33;100.00;97142.13;4781252;29;20143;-83
2023/12/21 16:58:45;;;;;;;1.10;1.10;;;;;;;-0.33;100.00;97131.50;4781907;29;20417;-80
2023/12/21 17:01:12;;;;;;;1.10;1.10;;;;;;;-0.32;100.00;97127.84;4774418;29;20694;-80
2023/12/21 17:03:40;;;;;;;1.00;1.00;;;;;;;-0.33;100.00;97134.16;4783934;29;20043;-80
2023/12/21 17:06:07;;;;;;;1.00;1.00;;;;;;;-0.33;100.00;97128.84;4783488;30;20598;-81
2023/12/21 17:08:35;;;;;;;0.98;0.98;;;;;;;-0.34;100.00;97124.59;4781341;30;20050;-83
2023/12/21 17:11:02;;;;;;;1.00;1.00;;;;;;;-0.35;100.00;97115.84;4780225;29;20150;-83
2023/12/21 17:13:29;;;;;;;0.98;0.98;;;;;;;-0.32;100.00;97135.78;4762355;30;20048;-83
2023/12/21 17:15:59;;;;;;;1.08;1.08;;;;;;;-0.34;100.00;97133.34;4766176;30;20048;-80
2023/12/21 17:18:30;;;;;;;1.00;1.00;;;;;;;-0.36;100.00;97127.47;4766554;30;20056;-84
2023/12/21 17:20:58;;;;;;;0.98;0.98;;;;;;;-0.32;100.00;97139.25;4780087;30;20056;-81
2023/12/21 17:23:25;;;;;;;1.10;1.10;;;;;;;-0.41;100.00;97124.66;4763160;30;20059;-81
2023/12/21 17:25:53;;;;;;;1.00;1.00;;;;;;;-0.27;100.00;97138.59;4764579;30;20070;-79
2023/12/21 17:28:23;;;;;;;0.93;0.93;;;;;;;-0.32;100.00;97131.31;4770662;30;20130;-81
2023/12/21 17:30:53;;;;;;;0.90;0.90;;;;;;;-0.32;100.00;97135.78;4769146;30;20051;-79
2023/12/21 17:33:21;;;;;;;1.00;1.00;;;;;;;-0.30;100.00;97126.59;4765630;29;20071;-80
2023/12/21 17:35:48;;;;;;;0.82;0.82;;;;;;;-0.33;100.00;97123.56;4766088;30;20481;-81
2023/12/21 17:38:16;;;;;;;0.98;0.98;;;;;;;-0.35;100.00;97123.78;4763986;29;20538;-81
2023/12/21 17:40:43;;;;;;;0.90;0.90;;;;;;;-0.31;100.00;97126.81;4765361;30;20054;-80
2023/12/21 17:43:10;;;;;;;1.05;1.05;;;;;;;-0.33;100.00;97120.91;4764893;30;20052;-81
2023/12/21 17:45:37;;;;;;;1.00;1.00;;;;;;;-0.36;100.00;97124.00;4762222;30;20067;-81
2023/12/21 17:48:05;;;;;;;0.98;0.98;;;;;;;-0.37;100.00;97117.91;4763602;30;20047;-81
2023/12/21 17:50:32;;;;;;;1.00;1.00;;;;;;;-0.33;100.00;97121.75;4763767;29;20058;-82
2023/12/21 17:53:01;;;;;;;0.93;0.93;;;;;;;-0.30;100.00;97123.13;4765571;29;20051;-81
2023/12/21 17:55:28;;;;;;;0.95;0.95;;;;;;;-0.32;100.00;97123.34;4762550;29;20057;-82
2023/12/21 17:57:55;;;;;;;1.00;1.00;;;;;;;-0.32;100.00;97120.69;4765215;30;20054;-81
2023/12/21 18:00:22;;;;;;;1.00;1.00;;;;;;;-0.28;100.00;97127.19;4776178;30;20051;-80
2023/12/21 18:02:50;;;;;;;0.90;0.90;;;;;;;-0.26;100.00;97124.31;4778361;29;20047;-82
2023/12/21 18:05:17;;;;;;;1.00;1.00;;;;;;;-0.27;100.00;97120.84;4765353;29;20082;-82
2023/12/21 18:07:44;;;;;;;1.00;1.00;;;;;;;-0.28;100.00;97123.69;4777824;30;20109;-82
2023/12/21 18:10:13;;;;;;;1.00;1.00;;;;;;;-0.26;100.00;97124.31;4765290;30;20055;-81
2023/12/21 18:12:40;;;;;;;1.00;1.00;;;;;;;-0.27;100.00;97123.50;4764149;29;20050;-81
2023/12/21 18:15:09;;;;;;;1.00;1.00;;;;;;;-0.25;100.00;97125.94;4763072;30;20063;-81
2023/12/21 18:17:36;;;;;;;1.10;1.10;;;;;;;-0.30;100.00;97116.00;4764057;29;20427;-82
2023/12/21 18:20:06;;;;;;;1.00;1.00;;;;;;;-0.31;100.00;97117.00;4762850;30;20142;-81
2023/12/21 18:22:34;;;;;;;1.00;1.00;;;;;;;-0.34;100.00;97116.66;4764020;30;20462;-81
2023/12/21 18:25:02;;;;;;;1.00;1.00;;;;;;;-0.36;100.00;97108.09;4764987;29;20087;-81
2023/12/21 18:27:31;;;;;;;1.10;1.10;;;;;;;-0.37;100.00;97102.00;4764697;30;20048;-83
2023/12/21 18:30:00;;;;;;;0.93;0.93;;;;;;;-0.36;100.00;97105.44;4764008;30;20542;-86
2023/12/21 18:32:30;;;;;;;1.00;1.00;;;;;;;-0.37;100.00;97098.53;4763595;29;20168;-87
2023/12/21 18:34:57;;;;;;;1.02;1.02;;;;;;;-0.42;100.00;97095.75;4765002;29;20507;-85
2023/12/21 18:37:27;;;;;;;1.02;1.02;;;;;;;-0.38;100.00;97099.56;4765257;29;20143;-87
2023/12/21 18:39:54;;;;;;;0.90;0.90;;;;;;;-0.36;100.00;97094.84;4765288;30;20036;-87
2023/12/21 18:42:22;;;;;;;0.95;0.95;;;;;;;-0.33;100.00;97097.06;4765641;30;20215;-87
2023/12/21 18:44:49;;;;;;;0.90;0.90;;;;;;;-0.40;100.00;97083.88;4765870;30;20066;-87
2023/12/21 18:47:17;;;;;;;1.10;1.10;;;;;;;-0.42;100.00;97085.16;4761761;29;20116;-86
2023/12/21 18:49:45;;;;;;;1.05;1.05;;;;;;;-0.41;100.00;97092.84;4764226;29;20506;-88
2023/12/21 18:52:12;;;;;;;1.00;1.00;;;;;;;-0.45;100.00;97081.91;4765585;30;20060;-84
2023/12/21 18:54:40;;;;;;;1.00;1.00;;;;;;;-0.49;100.00;97078.06;4749094;30;20054;-84
2023/12/21 18:57:10;;;;;;;0.90;0.90;;;;;;;-0.52;100.00;97083.81;4777374;30;20140;-85
2023/12/21 18:59:37;;;;;;;1.00;1.00;;;;;;;-0.55;100.00;97083.44;4763298;30;20044;-84
2023/12/21 19:02:04;;;;;;;0.90;0.90;;;;;;;-0.57;100.00;97082.84;4763613;30;20062;-85
2023/12/21 19:04:32;;;;;;;0.90;0.90;;;;;;;-0.57;100.00;97080.22;4765077;30;20067;-85
2023/12/21 19:06:59;;;;;;;0.98;0.98;;;;;;;-0.54;100.00;97087.72;4763244;29;20551;-87
2023/12/21 19:09:29;;;;;;;0.80;0.80;;;;;;;-0.57;100.00;97086.31;4747262;30;20118;-87
2023/12/21 19:11:57;;;;;;;1.00;1.00;;;;;;;-0.61;100.00;97085.13;4764996;30;20052;-86
2023/12/21 19:14:26;;;;;;;0.90;0.90;;;;;;;-0.60;100.00;97085.94;4778347;29;20063;-86
2023/12/21 19:17:04;;;;;;;1.02;1.02;;;;;;;-0.56;100.00;97085.25;4764371;29;20052;-86
2023/12/21 19:19:31;;;;;;;1.00;1.00;;;;;;;-0.58;100.00;97079.41;4765336;30;20052;-86
2023/12/21 19:21:59;;;;;;;1.00;1.00;;;;;;;-0.58;100.00;97082.06;4767255;30;20125;-84
2023/12/21 19:24:28;;;;;;;1.00;1.00;;;;;;;-0.61;100.00;97076.38;4767679;29;20407;-85
2023/12/21 19:26:56;;;;;;;1.00;1.00;;;;;;;-0.61;100.00;97081.66;4782038;29;20089;-85
2023/12/21 19:29:25;;;;;;;1.00;1.00;;;;;;;-0.64;100.00;97080.25;4764549;30;20048;-82
2023/12/21 19:31:52;;;;;;;0.93;0.93;;;;;;;-0.62;100.00;97090.66;4767455;30;20067;-85
2023/12/21 19:34:20;;;;;;;0.90;0.90;;;;;;;-0.61;100.00;97082.47;4768648;29;20118;-86
2023/12/21 19:36:48;;;;;;;1.00;1.00;;;;;;;-0.60;100.00;97078.81;4768517;29;20519;-84
2023/12/21 19:39:15;;;;;;;0.90;0.90;;;;;;;-0.62;100.00;97077.41;4781159;29;20230;-85
2023/12/21 19:41:43;;;;;;;0.90;0.90;;;;;;;-0.64;100.00;97068.84;4765796;30;20048;-84
2023/12/21 19:44:10;;;;;;;0.98;0.98;;;;;;;-0.62;100.00;97070.25;4769698;29;20109;-85
2023/12/21 19:46:40;;;;;;;1.05;1.05;;;;;;;-0.61;100.00;97068.41;4770915;30;20051;-84
2023/12/21 19:49:08;;;;;;;0.82;0.82;;;;;;;-0.60;100.00;97076.16;4770008;29;20067;-86
2023/12/21 19:51:35;;;;;;;0.90;0.90;;;;;;;-0.58;100.00;97079.41;4781700;30;20512;-84
2023/12/21 19:54:03;;;;;;;0.93;0.93;;;;;;;-0.54;100.00;97085.06;4767690;30;20507;-81
2023/12/21 19:56:30;;;;;;;0.98;0.98;;;;;;;-0.53;100.00;97084.84;4765879;29;20083;-81
2023/12/21 19:58:57;;;;;;;1.02;1.02;;;;;;;-0.53;100.00;97079.56;4767842;29;20051;-83
2023/12/21 20:01:25;;;;;;;0.90;0.90;;;;;;;-0.49;100.00;97086.00;4780576;29;20047;-80
2023/12/21 20:03:53;;;;;;;1.00;1.00;;;;;;;-0.49;100.00;97093.97;4766998;29;20122;-81
2023/12/21 20:06:20;;;;;;;0.90;0.90;;;;;;;-0.48;100.00;97100.91;4780938;29;20507;-81
2023/12/21 20:08:47;;;;;;;1.10;1.10;;;;;;;-0.45;100.00;97094.34;4769239;30;20115;-81
2023/12/21 20:11:14;;;;;;;1.10;1.10;;;;;;;-0.46;100.00;97090.06;4770120;30;20577;-81
2023/12/21 20:13:42;;;;;;;0.95;0.95;;;;;;;-0.47;100.00;97085.81;4768901;29;20055;-81
2023/12/21 20:16:10;;;;;;;1.00;1.00;;;;;;;-0.46;100.00;97095.34;4766803;29;20455;-80
2023/12/21 20:18:42;;;;;;;1.00;1.00;;;;;;;-0.51;100.00;97082.75;4759035;29;20064;-81
2023/12/21 20:21:10;;;;;;;1.00;1.00;;;;;;;-0.65;100.00;97068.06;4767144;29;20101;-80
2023/12/21 20:23:37;;;;;;;0.95;0.95;;;;;;;-0.55;100.00;97086.91;4766161;30;20720;-80
2023/12/21 20:26:05;;;;;;;1.00;1.00;;;;;;;-0.57;100.00;97088.97;4766589;30;20064;-81
2023/12/21 20:28:32;;;;;;;1.00;1.00;;;;;;;-0.54;100.00;97090.34;4768569;29;20146;-80
2023/12/21 20:31:05;;;;;;;1.00;1.00;;;;;;;-0.55;100.00;97086.09;4767059;29;20052;-81
2023/12/21 20:33:32;;;;;;;1.00;1.00;;;;;;;-0.58;100.00;97082.06;4762747;30;20052;-81
2023/12/21 20:36:00;;;;;;;0.90;0.90;;;;;;;-0.64;100.00;97084.75;4767312;29;20151;-81
2023/12/21 20:38:30;;;;;;;0.98;0.98;;;;;;;-0.60;100.00;97083.31;4779313;29;20538;-82
2023/12/21 20:41:01;;;;;;;0.98;0.98;;;;;;;-0.59;100.00;97087.56;4767011;29;20056;-81
2023/12/21 20:43:31;;;;;;;0.88;0.88;;;;;;;-0.60;100.00;97081.47;4765423;30;20052;-80
2023/12/21 20:46:01;;;;;;;1.00;1.00;;;;;;;-0.55;100.00;97075.50;4766633;30;20091;-82
2023/12/21 20:48:37;;;;;;;0.90;0.90;;;;;;;-0.50;100.00;97084.41;4761820;30;20128;-80
2023/12/21 20:51:08;;;;;;;1.00;1.00;;;;;;;-0.52;100.00;97075.84;4765908;30;20138;-79
2023/12/21 20:53:35;;;;;;;1.00;1.00;;;;;;;-0.48;100.00;97087.66;4765977;30;20059;-79
2023/12/21 20:56:08;;;;;;;0.90;0.90;;;;;;;-0.53;100.00;97074.25;4764910;30;20055;-79
2023/12/21 20:58:36;;;;;;;1.00;1.00;;;;;;;-0.52;100.00;97075.06;4765663;29;20518;-81
2023/12/21 21:01:06;;;;;;;1.00;1.00;;;;;;;-0.60;100.00;97070.84;4762734;30;20047;-80
2023/12/21 21:03:36;;;;;;;1.00;1.00;;;;;;;-0.56;100.00;97081.81;4749030;30;20072;-83
2023/12/21 21:06:04;;;;;;;1.10;1.10;;;;;;;-0.56;100.00;97077.31;4749203;30;20071;-81
2023/12/21 21:08:41;;;;;;;1.00;1.00;;;;;;;-0.50;100.00;97091.53;4749059;29;20059;-82
2023/12/21 21:11:08;;;;;;;0.90;0.90;;;;;;;-0.50;100.00;97087.06;4747444;30;20067;-83
2023/12/21 21:13:41;;;;;;;1.10;1.10;;;;;;;-0.48;100.00;97074.41;4758155;30;20064;-81
2023/12/21 21:16:10;;;;;;;1.20;1.20;;;;;;;-0.48;100.00;97078.88;4758905;29;20052;-82
2023/12/21 21:18:38;;;;;;;1.00;1.00;;;;;;;-0.53;100.00;97076.91;4763567;30;20056;-81
2023/12/21 21:21:07;;;;;;;1.00;1.00;;;;;;;-0.58;100.00;97068.81;4763920;30;20101;-81
2023/12/21 21:23:34;;;;;;;1.00;1.00;;;;;;;-0.57;100.00;97074.91;4766768;30;20048;-81
2023/12/21 21:26:15;;;;;;;0.85;0.85;;;;;;;-0.60;100.00;97076.16;4765564;30;20071;-80
2023/12/21 21:28:46;;;;;;;0.93;0.93;;;;;;;-0.69;100.00;97069.50;4778284;30;20151;-81
2023/12/21 21:31:17;;;;;;;1.10;1.10;;;;;;;-0.67;100.00;97070.09;4766248;30;20275;-80
2023/12/21 21:33:47;;;;;;;0.93;0.93;;;;;;;-0.60;100.00;97070.06;4764961;30;20052;-79
2023/12/21 21:36:14;;;;;;;0.95;0.95;;;;;;;-0.59;100.00;97074.31;4765853;29;20515;-80
2023/12/21 21:38:42;;;;;;;0.95;0.95;;;;;;;-0.60;100.00;97078.81;4778205;29;20055;-82
2023/12/21 21:41:19;;;;;;;1.00;1.00;;;;;;;-0.61;100.00;97063.91;4766384;30;20178;-82
2023/12/21 21:43:46;;;;;;;0.98;0.98;;;;;;;-0.60;100.00;97064.75;4764059;30;20051;-81
2023/12/21 21:46:14;;;;;;;0.95;0.95;;;;;;;-0.64;100.00;97059.06;4764212;29;20052;-81
2023/12/21 21:48:41;;;;;;;0.98;0.98;;;;;;;-0.65;100.00;97057.47;4762233;30;20501;-80
2023/12/21 21:51:09;;;;;;;0.93;0.93;;;;;;;-0.62;100.00;97057.00;4763736;30;20059;-80
2023/12/21 21:53:42;;;;;;;0.98;0.98;;;;;;;-0.63;100.00;97060.72;4765922;30;21559;-81
2023/12/21 21:56:09;;;;;;;0.80;0.80;;;;;;;-0.64;100.00;97063.56;4779915;30;20060;-80
2023/12/21 21:58:36;;;;;;;0.95;0.95;;;;;;;-0.64;100.00;97051.13;4764475;30;20062;-79
2023/12/21 22:01:05;;;;;;;0.85;0.85;;;;;;;-0.69;100.00;97059.72;4766094;29;20109;-80
2023/12/21 22:03:36;;;;;;;1.00;1.00;;;;;;;-0.70;100.00;97066.06;4766102;29;20142;-80
2023/12/21 22:06:03;;;;;;;1.00;1.00;;;;;;;-0.70;100.00;97055.47;4765926;30;20125;-80
2023/12/21 22:08:31;;;;;;;1.10;1.10;;;;;;;-0.71;100.00;97048.56;4765192;30;20062;-80
2023/12/21 22:10:58;;;;;;;0.98;0.98;;;;;;;-0.70;100.00;97038.78;4765950;30;20052;-79
2023/12/21 22:13:26;;;;;;;1.08;1.08;;;;;;;-0.71;100.00;97045.06;4764226;29;20721;-79
2023/12/21 22:15:56;;;;;;;1.00;1.00;;;;;;;-0.79;100.00;97038.22;4765748;30;20089;-79
2023/12/21 22:18:23;;;;;;;0.90;0.90;;;;;;;-0.78;100.00;97047.00;4763723;30;20059;-81
2023/12/21 22:20:52;;;;;;;1.10;1.10;;;;;;;-0.77;100.00;97048.63;4764830;30;20507;-80
2023/12/21 22:23:20;;;;;;;1.08;1.08;;;;;;;-0.78;100.00;97047.00;4763625;30;20443;-83
2023/12/21 22:25:55;;;;;;;0.90;0.90;;;;;;;-0.85;100.00;97028.53;4736505;30;20063;-81
2023/12/21 22:28:23;;;;;;;1.00;1.00;;;;;;;-0.87;100.00;97034.03;4766011;30;20063;-83
2023/12/21 22:30:51;;;;;;;1.00;1.00;;;;;;;-0.91;100.00;97032.06;4766593;30;20060;-81
2023/12/21 22:33:19;;;;;;;1.10;1.10;;;;;;;-0.99;100.00;97019.91;4779922;29;20067;-83
2023/12/21 22:35:46;;;;;;;1.10;1.10;;;;;;;-0.98;100.00;97021.53;4765663;30;20101;-82
2023/12/21 22:38:21;;;;;;;1.30;1.20;;;;;;;-0.99;100.00;97027.84;4765828;30;20142;-82
2023/12/21 22:40:52;;;;;;;1.05;1.05;;;;;;;-1.02;100.00;97014.25;4765922;30;20063;-83
2023/12/21 22:43:19;;;;;;;0.95;0.95;;;;;;;-1.07;100.00;97017.53;4766557;30;20059;-81
2023/12/21 22:46:05;;;;;;;1.02;1.02;;;;;;;-1.11;100.00;97019.81;4756065;30;20079;-80
2023/12/21 22:48:32;;;;;;;0.90;0.90;;;;;;;-1.08;100.00;97034.47;4765747;29;20054;-81
2023/12/21 22:51:00;;;;;;;0.82;0.82;;;;;;;-1.11;100.00;97016.38;4764584;30;20248;-82
2023/12/21 22:53:27;;;;;;;1.00;1.00;;;;;;;-1.13;100.00;97013.13;4765620;30;20067;-81
2023/12/21 22:55:54;;;;;;;0.90;0.90;;;;;;;-1.12;100.00;97020.84;4767727;30;20071;-81
2023/12/21 22:58:22;;;;;;;1.10;1.10;;;;;;;-1.17;100.00;97017.22;4782233;29;20216;-81
2023/12/21 23:00:49;;;;;;;1.00;1.00;;;;;;;-1.23;100.00;97018.91;4769582;30;20123;-82
2023/12/21 23:03:16;;;;;;;1.00;1.00;;;;;;;-1.20;100.00;97030.91;4769452;29;20127;-81
2023/12/21 23:05:44;;;;;;;1.00;1.00;;;;;;;-1.17;100.00;97018.03;4768783;30;20464;-82
2023/12/21 23:08:11;;;;;;;0.90;0.90;;;;;;;-1.16;100.00;97011.72;4768213;30;20469;-80
2023/12/21 23:10:43;;;;;;;1.00;1.00;;;;;;;-1.16;100.00;97024.16;4781747;29;20066;-81
2023/12/21 23:13:16;;;;;;;1.00;1.00;;;;;;;-1.17;100.00;97017.22;4768512;30;20117;-81
2023/12/21 23:15:45;;;;;;;1.10;1.10;;;;;;;-1.18;100.00;97023.56;4768334;30;20590;-81
2023/12/21 23:18:12;;;;;;;1.00;1.00;;;;;;;-1.23;100.00;97010.16;4768763;29;20756;-82
2023/12/21 23:20:40;;;;;;;1.00;1.00;;;;;;;-1.27;100.00;97012.44;4769002;29;20060;-82
2023/12/21 23:23:08;;;;;;;1.00;1.00;;;;;;;-1.26;100.00;97024.66;4768884;29;20090;-82
2023/12/21 23:25:35;;;;;;;1.02;1.02;;;;;;;-1.28;100.00;97002.06;4768720;29;20051;-82
2023/12/21 23:28:05;;;;;;;1.02;1.02;;;;;;;-1.32;100.00;97004.34;4768965;29;20523;-82
2023/12/21 23:30:33;;;;;;;1.00;1.00;;;;;;;-1.32;100.00;97010.47;4766621;29;20047;-81
2023/12/21 23:33:00;;;;;;;1.00;1.00;;;;;;;-1.36;100.00;97019.03;4768890;29;20051;-80
2023/12/21 23:35:31;;;;;;;1.23;1.20;;;;;;;-1.37;100.00;97017.41;4766331;30;20117;-82
2023/12/21 23:37:58;;;;;;;1.08;1.08;;;;;;;-1.34;100.00;97015.16;4768615;30;20044;-82
2023/12/21 23:40:27;;;;;;;0.88;0.88;;;;;;;-1.35;100.00;97024.09;4768496;29;20052;-82
2023/12/21 23:42:54;;;;;;;1.00;1.00;;;;;;;-1.39;100.00;97011.53;4767593;29;20142;-83
2023/12/21 23:45:24;;;;;;;1.02;1.02;;;;;;;-1.44;100.00;97014.84;4768545;30;20499;-81
2023/12/21 23:47:52;;;;;;;1.00;1.00;;;;;;;-1.53;100.00;97010.81;4768781;30;20056;-82
2023/12/21 23:50:20;;;;;;;1.00;1.00;;;;;;;-1.54;100.00;97001.28;4768984;29;20060;-82
2023/12/21 23:52:47;;;;;;;1.10;1.10;;;;;;;-1.62;100.00;97004.19;4768675;29;20066;-80
2023/12/21 23:55:17;;;;;;;1.00;1.00;;;;;;;-1.60;100.00;97018.81;4767395;30;20051;-80
2023/12/21 23:57:51;;;;;;;1.00;1.00;;;;;;;-1.62;100.00;97010.31;4768414;30;20150;-81
